Time,TemperatureF,DewpointF,PressureIn,WindDirection,WindDirectionDegrees,WindSpeedMPH,WindSpeedGustMPH,Humidity,HourlyPrecipIn,Conditions,Clouds,dailyrainin,SoftwareType,DateUTC
2013-06-13 08:08:00,68.7,54.3,30.04,ENE,68,3.8,3.8,60,0.00,,,0.00,WUHU216HW,2013-06-13 06:08:00,
2013-06-13 08:13:00,68.9,53.9,30.04,NE,45,0.0,3.8,59,0.00,,,0.00,WUHU216HW,2013-06-13 06:13:00,
2013-06-13 08:18:00,69.0,54.6,30.05,NNW,338,0.0,3.3,60,0.00,,,0.00,WUHU216HW,2013-06-13 06:18:00,
2013-06-13 08:23:00,69.0,54.1,30.04,NE,45,2.0,6.4,59,0.00,,,0.00,WUHU216HW,2013-06-13 06:23:00,
2013-06-13 08:29:00,69.4,54.0,30.06,East,90,0.6,6.7,58,0.00,,,0.00,WUHU216HW,2013-06-13 06:29:00,
2013-06-13 08:34:00,69.4,54.0,30.06,North,0,6.9,6.9,58,0.00,,,0.00,WUHU216HW,2013-06-13 06:34:00,
2013-06-13 08:39:00,69.6,54.7,30.07,NE,45,2.4,6.9,59,0.00,,,0.00,WUHU216HW,2013-06-13 06:39:00,
2013-06-13 08:44:00,69.6,54.2,30.07,NE,45,0.0,4.4,58,0.00,,,0.00,WUHU216HW,2013-06-13 06:44:00,
2013-06-13 08:49:00,69.8,54.3,30.07,ENE,68,0.0,5.3,58,0.00,,,0.00,WUHU216HW,2013-06-13 06:49:00,
2013-06-13 13:45:00,79.3,59.1,30.04,North,0,3.3,3.3,50,0.00,,,0.00,WUHU216HW,2013-06-13 11:45:00,
2013-06-13 13:55:00,79.1,58.3,30.04,NNE,23,4.0,8.0,49,0.00,,,0.00,WUHU216HW,2013-06-13 11:55:00,
2013-06-13 14:00:00,79.3,59.1,30.06,North,0,3.3,7.1,50,0.00,,,0.00,WUHU216HW,2013-06-13 12:00:00,
2013-06-13 14:05:00,79.5,59.2,30.06,WSW,248,0.0,9.3,50,0.00,,,0.00,WUHU216HW,2013-06-13 12:05:00,
2013-06-13 14:10:00,79.8,59.0,30.07,NW,315,0.0,9.3,49,0.00,,,0.00,WUHU216HW,2013-06-13 12:10:00,
2013-06-13 15:02:00,77.5,56.8,30.06,NE,45,0.0,0.0,50,0.00,,,0.00,WUHU216HW,2013-06-13 13:02:00,
2013-06-13 15:07:00,78.4,57.7,30.05,ENE,68,0.0,0.0,49,0.00,,,0.00,WUHU216HW,2013-06-13 13:07:00,
2013-06-13 17:01:00,81.3,57.3,30.02,North,0,0.0,0.0,44,0.00,,,0.00,WUHU216HW,2013-06-13 15:01:00,
2013-06-13 17:06:00,81.6,58.1,30.03,SW,225,0.0,0.0,45,0.00,,,0.00,WUHU216HW,2013-06-13 15:06:00,
2013-06-13 17:11:00,81.5,58.6,30.03,SSE,158,0.0,0.0,46,0.00,,,0.00,WUHU216HW,2013-06-13 15:11:00,
2013-06-13 17:16:00,82.4,59.4,30.04,West,270,0.0,0.0,46,0.00,,,0.00,WUHU216HW,2013-06-13 15:16:00,
2013-06-13 17:21:00,82.7,59.1,30.05,WNW,293,0.0,0.0,45,0.00,,,0.00,WUHU216HW,2013-06-13 15:21:00,
2013-06-13 17:26:00,82.9,59.3,30.05,West,270,0.0,0.0,45,0.00,,,0.00,WUHU216HW,2013-06-13 15:26:00,
2013-06-13 17:31:00,82.9,58.7,30.06,NW,315,0.0,0.0,44,0.00,,,0.00,WUHU216HW,2013-06-13 15:31:00,
2013-06-13 20:21:00,67.6,56.2,30.02,WNW,293,2.4,2.4,67,0.00,,,0.00,WUHU216HW,2013-06-13 18:21:00,
2013-06-13 20:31:00,67.8,56.0,30.02,West,270,2.9,2.9,66,0.00,,,0.00,WUHU216HW,2013-06-13 18:31:00,
2013-06-13 20:36:00,67.6,56.2,30.02,West,270,0.6,2.9,67,0.00,,,0.00,WUHU216HW,2013-06-13 18:36:00,
2013-06-13 20:41:00,67.2,56.3,30.02,WNW,293,0.0,0.8,68,0.00,,,0.00,WUHU216HW,2013-06-13 18:41:00,
2013-06-13 20:46:00,65.8,56.1,30.02,NNW,338,0.0,0.8,71,0.00,,,0.00,WUHU216HW,2013-06-13 18:46:00,
2013-06-13 21:01:00,65.1,56.2,30.02,WSW,248,3.8,3.8,73,0.00,,,0.00,WUHU216HW,2013-06-13 19:01:00,
2013-06-13 21:10:00,65.4,56.2,30.03,WNW,293,1.3,4.4,72,0.00,,,0.00,WUHU216HW,2013-06-13 19:10:00,